createdAt,value
2022-10-13T00:01:45.556Z,99.43
2022-10-13T00:04:14.329Z,98.90
2022-10-13T00:06:41.735Z,99.65
2022-10-13T00:09:09.245Z,100.00
2022-10-13T00:11:36.640Z,100.00
2022-10-13T00:14:05.433Z,100.00
2022-10-13T00:16:36.262Z,99.39
2022-10-13T00:19:03.751Z,99.88
2022-10-13T00:21:32.609Z,100.00
2022-10-13T00:24:00.102Z,100.00
2022-10-13T00:26:27.959Z,100.00
2022-10-13T00:28:55.725Z,99.10
2022-10-13T00:31:25.042Z,99.45
2022-10-13T00:33:52.800Z,99.65
2022-10-13T00:36:22.073Z,100.00
2022-10-13T00:38:50.932Z,99.53
2022-10-13T00:41:18.655Z,99.74
2022-10-13T00:43:51.902Z,100.00
2022-10-13T00:46:20.025Z,99.62
2022-10-13T00:48:48.079Z,99.33
2022-10-13T00:51:17.305Z,100.00
2022-10-13T00:53:44.909Z,100.00
2022-10-13T00:56:15.149Z,100.00
2022-10-13T00:58:43.927Z,100.00
2022-10-13T01:01:11.817Z,100.00
2022-10-13T01:03:39.614Z,99.93
2022-10-13T01:06:08.066Z,99.78
2022-10-13T01:08:35.760Z,99.68
2022-10-13T01:11:18.197Z,99.80
2022-10-13T01:13:51.733Z,99.14
2022-10-13T01:16:23.426Z,99.00
2022-10-13T01:18:56.646Z,98.30
2022-10-13T01:21:29.180Z,98.11
2022-10-13T01:24:22.640Z,97.65
2022-10-13T01:27:08.997Z,98.09
2022-10-13T01:30:10.409Z,98.01
2022-10-13T01:32:52.304Z,97.31
2022-10-13T01:35:22.879Z,97.43
2022-10-13T01:37:56.690Z,96.72
2022-10-13T01:40:27.193Z,97.16
2022-10-13T01:42:58.829Z,97.38
2022-10-13T01:45:32.314Z,97.45
2022-10-13T01:48:00.635Z,98.80
2022-10-13T01:50:29.085Z,98.20
2022-10-13T01:52:56.846Z,98.14
2022-10-13T01:55:24.348Z,98.56
2022-10-13T01:57:51.726Z,98.50
2022-10-13T02:00:22.366Z,99.04
2022-10-13T02:03:00.613Z,99.65
2022-10-13T02:05:37.190Z,100.00
2022-10-13T02:08:09.718Z,100.00
2022-10-13T02:10:43.078Z,99.74
2022-10-13T02:13:14.009Z,99.30
2022-10-13T02:15:44.374Z,98.71
2022-10-13T02:18:14.987Z,98.82
2022-10-13T02:20:44.307Z,98.58
2022-10-13T02:23:14.347Z,98.50
2022-10-13T02:25:42.426Z,97.97
2022-10-13T02:28:11.079Z,97.65
2022-10-13T02:30:43.792Z,98.23
2022-10-13T02:33:14.195Z,98.24
2022-10-13T02:35:41.917Z,98.73
2022-10-13T02:38:09.450Z,97.82
2022-10-13T02:40:36.953Z,98.05
2022-10-13T02:43:04.440Z,98.38
2022-10-13T02:45:31.806Z,98.19
2022-10-13T02:47:59.232Z,98.41
2022-10-13T02:50:28.145Z,98.03
2022-10-13T02:52:57.335Z,97.51
2022-10-13T02:55:24.791Z,97.26
2022-10-13T02:57:56.829Z,97.31
2022-10-13T03:00:24.355Z,97.29
2022-10-13T03:02:51.726Z,97.36
2022-10-13T03:05:19.105Z,97.39
2022-10-13T03:07:47.858Z,97.64
2022-10-13T03:10:15.238Z,97.25
2022-10-13T03:12:42.651Z,97.28
2022-10-13T03:15:10.554Z,97.24
2022-10-13T03:17:37.961Z,96.84
2022-10-13T03:20:06.741Z,97.20
2022-10-13T03:22:34.327Z,97.00
2022-10-13T03:25:03.570Z,97.00
2022-10-13T03:27:31.002Z,97.10
2022-10-13T03:29:58.502Z,96.44
2022-10-13T03:32:26.026Z,95.82
2022-10-13T03:34:53.374Z,95.88
2022-10-13T03:37:20.897Z,95.81
2022-10-13T03:39:48.276Z,95.75
2022-10-13T03:42:18.013Z,96.54
2022-10-13T03:44:52.355Z,95.72
2022-10-13T03:47:22.695Z,95.63
2022-10-13T03:49:50.102Z,96.13
2022-10-13T03:52:17.871Z,96.16
2022-10-13T03:54:45.469Z,95.48
2022-10-13T03:57:12.908Z,95.40
2022-10-13T03:59:41.993Z,95.86
2022-10-13T04:02:09.649Z,96.31
2022-10-13T04:04:38.295Z,95.74
2022-10-13T04:07:08.578Z,95.39
2022-10-13T04:09:36.010Z,95.85
2022-10-13T04:12:03.443Z,95.95
2022-10-13T04:14:30.894Z,96.18
2022-10-13T04:17:05.746Z,96.66
2022-10-13T04:19:33.218Z,96.90
2022-10-13T04:22:05.997Z,96.47
2022-10-13T04:24:34.024Z,96.39
2022-10-13T04:27:01.398Z,96.14
2022-10-13T04:29:28.896Z,96.64
2022-10-13T04:31:56.287Z,96.19
2022-10-13T04:34:24.974Z,96.15
2022-10-13T04:36:52.631Z,95.20
2022-10-13T04:39:20.149Z,95.40
2022-10-13T04:41:50.614Z,95.65
2022-10-13T04:44:17.981Z,95.23
2022-10-13T04:46:45.340Z,95.57
2022-10-13T04:49:12.848Z,95.49
2022-10-13T04:51:42.963Z,95.42
2022-10-13T04:54:10.446Z,94.57
2022-10-13T04:56:37.996Z,94.21
2022-10-13T04:59:06.197Z,94.07
2022-10-13T05:01:34.099Z,93.57
2022-10-13T05:04:03.090Z,94.20
2022-10-13T05:06:53.279Z,94.14
2022-10-13T05:09:26.551Z,95.30
2022-10-13T05:11:55.027Z,94.94
2022-10-13T05:14:22.426Z,94.38
2022-10-13T05:16:49.953Z,95.07
2022-10-13T05:19:17.329Z,95.17
2022-10-13T05:21:44.715Z,94.83
2022-10-13T05:24:13.586Z,94.59
2022-10-13T05:26:42.834Z,94.45
2022-10-13T05:29:10.231Z,94.59
2022-10-13T05:31:38.088Z,94.11
2022-10-13T05:34:05.538Z,94.06
2022-10-13T05:36:34.449Z,93.97
2022-10-13T05:39:05.001Z,93.80
2022-10-13T05:41:32.853Z,94.24
2022-10-13T05:44:03.376Z,93.50
2022-10-13T05:46:31.017Z,93.27
2022-10-13T05:48:58.406Z,93.62
2022-10-13T05:51:28.261Z,93.12
2022-10-13T05:54:00.657Z,93.11
2022-10-13T05:56:31.641Z,93.08
2022-10-13T05:59:03.852Z,93.33
2022-10-13T06:01:32.856Z,93.26
2022-10-13T06:04:04.155Z,93.26
2022-10-13T06:06:31.898Z,93.14
2022-10-13T06:08:59.573Z,92.64
2022-10-13T06:11:27.004Z,92.10
2022-10-13T06:13:54.396Z,91.69
2022-10-13T06:16:23.069Z,91.39
2022-10-13T06:18:50.541Z,91.28
2022-10-13T06:21:18.204Z,90.86
2022-10-13T06:23:45.543Z,91.21
2022-10-13T06:26:12.988Z,91.41
2022-10-13T06:28:40.402Z,91.23
2022-10-13T06:31:07.989Z,91.60
2022-10-13T06:33:36.733Z,91.59
2022-10-13T06:36:04.912Z,90.71
2022-10-13T06:38:32.815Z,91.14
2022-10-13T06:41:01.161Z,90.62
2022-10-13T06:43:35.741Z,90.51
2022-10-13T06:46:10.390Z,90.55
2022-10-13T06:48:39.143Z,90.59
2022-10-13T06:51:08.443Z,91.01
2022-10-13T06:53:36.315Z,90.60
2022-10-13T06:56:05.496Z,90.32
2022-10-13T06:58:33.205Z,90.32
2022-10-13T07:01:00.703Z,90.23
2022-10-13T07:03:28.121Z,89.81
2022-10-13T07:06:01.294Z,90.29
2022-10-13T07:08:28.760Z,90.40
2022-10-13T07:10:56.189Z,90.36
2022-10-13T07:13:23.522Z,90.74
2022-10-13T07:15:51.071Z,90.79
2022-10-13T07:18:18.429Z,90.83
2022-10-13T07:20:45.997Z,89.89
2022-10-13T07:23:14.977Z,89.39
2022-10-13T07:25:42.396Z,89.43
2022-10-13T07:28:09.756Z,89.50
2022-10-13T07:30:39.570Z,88.88
2022-10-13T07:33:07.216Z,88.68
2022-10-13T07:35:34.718Z,88.09
2022-10-13T07:38:02.049Z,88.35
2022-10-13T07:40:30.761Z,88.26
2022-10-13T07:42:58.506Z,87.95
2022-10-13T07:45:26.431Z,87.74
2022-10-13T07:47:53.906Z,88.17
2022-10-13T07:50:21.368Z,87.76
2022-10-13T07:52:48.744Z,86.83
2022-10-13T07:55:16.266Z,86.15
2022-10-13T07:57:45.713Z,85.31
2022-10-13T08:00:14.081Z,85.76
2022-10-13T08:02:42.265Z,85.13
2022-10-13T08:05:10.017Z,84.08
2022-10-13T08:07:37.988Z,83.68
2022-10-13T08:10:06.108Z,82.53
2022-10-13T08:12:33.514Z,81.78
2022-10-13T08:15:05.988Z,79.24
2022-10-13T08:17:34.170Z,80.06
2022-10-13T08:20:01.568Z,80.46
2022-10-13T08:22:28.958Z,79.97
2022-10-13T08:24:56.734Z,77.94
2022-10-13T08:27:37.038Z,78.27
2022-10-13T08:30:15.232Z,78.47
2022-10-13T08:32:42.643Z,77.92
2022-10-13T08:35:10.203Z,76.91
2022-10-13T08:37:37.679Z,78.25
2022-10-13T08:40:05.729Z,77.98
2022-10-13T08:42:33.125Z,76.94
2022-10-13T08:47:54.134Z,78.58
2022-10-13T08:50:24.800Z,77.94
2022-10-13T08:52:55.079Z,75.56
2022-10-13T08:55:26.257Z,74.60
2022-10-13T08:57:53.774Z,74.88
2022-10-13T09:00:26.700Z,73.01
2022-10-13T09:02:59.013Z,74.79
2022-10-13T09:05:33.781Z,74.44
2022-10-13T09:08:05.986Z,75.04
2022-10-13T09:10:33.422Z,74.60
2022-10-13T09:13:01.184Z,71.90
2022-10-13T09:15:28.592Z,69.12
2022-10-13T09:18:11.777Z,71.01
2022-10-13T09:20:39.330Z,70.84
2022-10-13T09:23:19.951Z,71.60
2022-10-13T09:25:49.393Z,72.12
2022-10-13T09:28:20.963Z,71.00
2022-10-13T09:30:49.137Z,73.61
2022-10-13T09:33:22.162Z,74.50
2022-10-13T09:35:51.180Z,74.84
2022-10-13T09:38:20.766Z,74.67
2022-10-13T09:40:58.484Z,73.79
2022-10-13T09:43:31.062Z,73.92
2022-10-13T09:45:59.092Z,73.01
2022-10-13T09:48:29.122Z,73.31
2022-10-13T09:50:58.040Z,73.09
2022-10-13T09:53:30.985Z,74.03
2022-10-13T09:56:19.383Z,72.13
2022-10-13T09:58:50.623Z,74.14
2022-10-13T10:01:23.703Z,71.50
2022-10-13T10:03:52.987Z,73.09
2022-10-13T10:06:21.751Z,74.08
2022-10-13T10:09:03.333Z,72.49
2022-10-13T10:11:34.847Z,73.95
2022-10-13T10:14:06.202Z,74.77
2022-10-13T10:16:37.052Z,74.65
2022-10-13T10:19:11.250Z,74.74
2022-10-13T10:21:43.233Z,76.03
2022-10-13T10:24:18.618Z,74.85
2022-10-13T10:26:52.268Z,74.29
2022-10-13T10:29:33.467Z,73.15
2022-10-13T10:32:10.776Z,73.56
2022-10-13T10:34:43.962Z,74.27
2022-10-13T10:37:29.630Z,73.22
2022-10-13T10:40:05.125Z,71.83
2022-10-13T10:42:49.733Z,71.80
2022-10-13T10:45:21.545Z,71.13
2022-10-13T10:47:52.078Z,70.74
2022-10-13T10:50:22.309Z,72.42
2022-10-13T10:52:55.923Z,70.09
2022-10-13T10:55:29.838Z,70.90
2022-10-13T10:58:06.056Z,69.43
2022-10-13T11:00:39.367Z,71.57
2022-10-13T11:03:11.550Z,70.71
2022-10-13T11:06:05.015Z,71.40
2022-10-13T11:08:41.740Z,71.01
2022-10-13T11:11:38.196Z,68.87
2022-10-13T11:14:31.125Z,66.80
2022-10-13T11:17:17.577Z,68.65
2022-10-13T11:19:46.113Z,66.69
2022-10-13T11:22:17.935Z,69.75
2022-10-13T11:24:58.416Z,68.89
2022-10-13T11:27:43.273Z,68.55
2022-10-13T11:30:40.716Z,66.67
2022-10-13T11:33:48.016Z,65.59
2022-10-13T11:36:32.447Z,65.54
2022-10-13T11:39:07.946Z,65.84
2022-10-13T11:41:43.073Z,66.00
2022-10-13T11:44:18.174Z,65.32
2022-10-13T11:46:57.666Z,64.87
2022-10-13T11:49:43.132Z,64.17
2022-10-13T11:52:30.345Z,64.74
2022-10-13T11:55:04.804Z,64.77
2022-10-13T11:57:32.940Z,62.48
2022-10-13T12:00:02.957Z,63.59
2022-10-13T12:02:48.473Z,62.76
2022-10-13T12:05:24.147Z,65.10
2022-10-13T12:07:53.066Z,64.74
2022-10-13T12:10:24.742Z,65.83
2022-10-13T12:12:52.213Z,65.86
2022-10-13T12:15:30.477Z,64.22
2022-10-13T12:17:57.855Z,64.22
2022-10-13T12:20:27.028Z,64.22
2022-10-13T12:22:55.912Z,65.47
2022-10-13T12:25:26.673Z,66.25
2022-10-13T12:27:59.970Z,64.59
2022-10-13T12:30:29.438Z,64.47
2022-10-13T12:32:58.432Z,63.47
2022-10-13T12:35:29.081Z,65.34
2022-10-13T12:37:57.272Z,63.87
2022-10-13T12:40:26.224Z,66.05
2022-10-13T12:42:54.080Z,64.60
2022-10-13T12:45:22.725Z,64.54
2022-10-13T12:47:51.734Z,61.93
2022-10-13T12:50:37.814Z,62.41
2022-10-13T12:53:12.423Z,59.54
2022-10-13T12:55:49.680Z,60.49
2022-10-13T12:58:22.920Z,59.61
2022-10-13T13:00:59.558Z,60.38
2022-10-13T13:03:28.651Z,59.36
2022-10-13T13:06:23.748Z,58.70
2022-10-13T13:09:25.564Z,56.71
2022-10-13T13:12:21.303Z,59.14
2022-10-13T13:14:50.943Z,58.98
2022-10-13T13:17:57.944Z,58.07
2022-10-13T13:20:23.201Z,57.68
2022-10-13T13:22:51.590Z,59.84
2022-10-13T13:25:18.997Z,58.91
2022-10-13T13:27:47.927Z,57.68
2022-10-13T13:30:19.904Z,58.29
2022-10-13T13:32:48.235Z,59.00
2022-10-13T13:35:15.889Z,58.92
2022-10-13T13:37:45.676Z,58.00
2022-10-13T13:40:17.358Z,57.59
2022-10-13T13:42:45.102Z,60.32
2022-10-13T13:45:14.720Z,62.25
2022-10-13T13:47:42.186Z,61.07
2022-10-13T13:50:15.143Z,59.55
2022-10-13T13:52:45.564Z,59.28
2022-10-13T13:55:14.647Z,59.78
2022-10-13T13:57:42.812Z,59.02
2022-10-13T14:00:12.401Z,61.21
2022-10-13T14:02:42.708Z,61.38
2022-10-13T14:05:11.062Z,62.88
2022-10-13T14:07:38.569Z,62.70
2022-10-13T14:10:07.139Z,63.44
2022-10-13T14:12:35.367Z,62.36
2022-10-13T14:15:02.927Z,66.64
2022-10-13T14:17:30.362Z,63.71
2022-10-13T14:19:59.339Z,64.61
2022-10-13T14:22:27.013Z,63.50
2022-10-13T14:24:54.688Z,65.15
2022-10-13T14:27:22.790Z,66.70
2022-10-13T14:29:50.502Z,64.19
2022-10-13T14:32:18.820Z,67.31
2022-10-13T14:34:46.508Z,65.46
2022-10-13T14:37:15.277Z,65.73
2022-10-13T14:39:42.692Z,65.26
2022-10-13T14:42:10.161Z,66.12
2022-10-13T14:44:37.753Z,67.91
2022-10-13T14:47:05.259Z,65.49
2022-10-13T14:49:32.699Z,66.09
2022-10-13T14:52:00.156Z,68.37
2022-10-13T14:54:29.847Z,67.13
2022-10-13T14:56:59.551Z,68.82
2022-10-13T14:59:27.128Z,70.07
2022-10-13T15:02:01.457Z,69.18
2022-10-13T15:04:28.933Z,70.43
2022-10-13T15:06:56.702Z,69.53
2022-10-13T15:09:33.521Z,69.25
2022-10-13T15:12:15.342Z,71.21
2022-10-13T15:14:42.750Z,70.34
2022-10-13T15:17:10.204Z,70.89
2022-10-13T15:19:37.621Z,71.60
2022-10-13T15:22:06.861Z,70.70
2022-10-13T15:24:34.306Z,71.49
2022-10-13T15:27:02.589Z,70.77
2022-10-13T15:29:32.031Z,70.57
2022-10-13T15:32:09.265Z,70.74
2022-10-13T15:34:36.854Z,71.80
2022-10-13T15:37:04.630Z,71.38
2022-10-13T15:39:32.122Z,71.89
2022-10-13T15:41:59.737Z,73.30
2022-10-13T15:44:27.632Z,73.53
2022-10-13T15:47:08.000Z,71.91
2022-10-13T15:49:38.166Z,71.51
2022-10-13T15:52:05.820Z,72.69
2022-10-13T15:54:33.495Z,74.59
2022-10-13T15:57:00.969Z,77.63
2022-10-13T15:59:28.474Z,78.19
2022-10-13T16:01:57.245Z,80.51
2022-10-13T16:04:24.902Z,85.82
2022-10-13T16:06:52.278Z,90.55
2022-10-13T16:09:19.672Z,95.43
2022-10-13T16:11:47.041Z,98.92
2022-10-13T16:14:14.377Z,100.00
2022-10-13T16:16:41.749Z,100.00
2022-10-13T16:19:10.665Z,100.00
2022-10-13T16:21:37.993Z,100.00
2022-10-13T16:24:06.157Z,100.00
2022-10-13T16:26:33.536Z,100.00
2022-10-13T16:29:01.018Z,100.00
2022-10-13T16:31:28.469Z,100.00
2022-10-13T16:33:55.993Z,100.00
2022-10-13T16:36:25.260Z,100.00
2022-10-13T16:38:54.175Z,100.00
2022-10-13T16:41:21.817Z,100.00
2022-10-13T16:43:49.505Z,100.00
2022-10-13T16:46:18.304Z,100.00
2022-10-13T16:48:46.895Z,100.00
2022-10-13T16:51:54.866Z,100.00
2022-10-13T16:54:23.565Z,100.00
2022-10-13T16:56:51.559Z,100.00
2022-10-13T16:59:18.885Z,100.00
2022-10-13T17:01:47.126Z,100.00
2022-10-13T17:04:17.323Z,100.00
2022-10-13T17:06:48.551Z,100.00
2022-10-13T17:09:15.971Z,100.00
2022-10-13T17:11:47.172Z,100.00
2022-10-13T17:14:14.530Z,100.00
2022-10-13T17:16:41.998Z,100.00
2022-10-13T17:19:10.094Z,100.00
2022-10-13T17:21:37.915Z,100.00
2022-10-13T17:24:08.281Z,100.00
2022-10-13T17:26:35.733Z,100.00
2022-10-13T17:29:04.691Z,100.00
2022-10-13T17:31:32.120Z,100.00
2022-10-13T17:34:00.291Z,100.00
2022-10-13T17:36:29.696Z,100.00
2022-10-13T17:39:02.894Z,100.00
2022-10-13T17:41:30.245Z,100.00
2022-10-13T17:43:57.673Z,100.00
2022-10-13T17:46:36.890Z,100.00
2022-10-13T17:49:06.129Z,100.00
2022-10-13T17:51:33.521Z,100.00
2022-10-13T17:54:04.683Z,100.00
2022-10-13T17:56:32.194Z,100.00
2022-10-13T17:59:00.257Z,100.00
2022-10-13T18:01:31.465Z,100.00
2022-10-13T18:04:00.962Z,100.00
2022-10-13T18:06:30.584Z,100.00
2022-10-13T18:09:01.270Z,100.00
2022-10-13T18:11:28.985Z,100.00
2022-10-13T18:13:56.365Z,100.00
2022-10-13T18:16:24.605Z,100.00
2022-10-13T18:18:54.757Z,100.00
2022-10-13T18:21:23.956Z,100.00
2022-10-13T18:23:52.933Z,100.00
2022-10-13T18:26:20.973Z,100.00
2022-10-13T18:28:49.831Z,100.00
2022-10-13T18:31:21.718Z,100.00
2022-10-13T18:33:52.778Z,100.00
2022-10-13T18:36:23.406Z,100.00
2022-10-13T18:38:50.859Z,100.00
2022-10-13T18:41:19.379Z,100.00
2022-10-13T18:43:49.129Z,100.00
2022-10-13T18:46:18.810Z,100.00
2022-10-13T18:48:48.124Z,100.00
2022-10-13T18:51:18.210Z,100.00
2022-10-13T18:53:47.095Z,100.00
2022-10-13T18:56:19.072Z,100.00
2022-10-13T18:58:46.961Z,100.00
2022-10-13T19:01:17.440Z,100.00
2022-10-13T19:03:45.451Z,100.00
2022-10-13T19:06:15.125Z,100.00
2022-10-13T19:08:48.108Z,100.00
2022-10-13T19:11:16.874Z,100.00
2022-10-13T19:13:44.560Z,100.00
2022-10-13T19:16:13.052Z,100.00
2022-10-13T19:18:40.599Z,100.00
2022-10-13T19:21:08.169Z,100.00
2022-10-13T19:23:35.545Z,100.00
2022-10-13T19:26:12.468Z,100.00
2022-10-13T19:28:42.639Z,100.00
2022-10-13T19:31:10.564Z,100.00
2022-10-13T19:33:44.821Z,100.00
2022-10-13T19:36:21.551Z,100.00
2022-10-13T19:38:49.635Z,100.00
2022-10-13T19:41:18.957Z,100.00
2022-10-13T19:43:46.375Z,100.00
2022-10-13T19:46:13.865Z,100.00
2022-10-13T19:48:41.296Z,100.00
2022-10-13T19:51:10.012Z,100.00
2022-10-13T19:53:40.860Z,100.00
2022-10-13T19:56:09.265Z,100.00
2022-10-13T19:58:37.997Z,100.00
2022-10-13T20:01:08.163Z,100.00
2022-10-13T20:03:35.756Z,100.00
2022-10-13T20:06:06.872Z,100.00
2022-10-13T20:08:39.017Z,100.00
2022-10-13T20:11:07.397Z,100.00
2022-10-13T20:13:34.859Z,100.00
2022-10-13T20:16:07.290Z,100.00
2022-10-13T20:18:34.971Z,100.00
2022-10-13T20:21:04.215Z,100.00
2022-10-13T20:23:32.697Z,100.00
2022-10-13T20:26:02.921Z,100.00
2022-10-13T20:28:39.196Z,100.00
2022-10-13T20:31:11.382Z,100.00
2022-10-13T20:33:38.921Z,100.00
2022-10-13T20:36:08.660Z,100.00
2022-10-13T20:38:36.650Z,100.00
2022-10-13T20:41:04.962Z,100.00
2022-10-13T20:43:32.381Z,100.00
2022-10-13T20:46:00.994Z,100.00
2022-10-13T20:48:45.572Z,100.00
2022-10-13T20:51:20.605Z,100.00
2022-10-13T20:53:48.558Z,100.00
2022-10-13T20:56:18.201Z,100.00
2022-10-13T20:58:46.233Z,100.00
2022-10-13T21:01:13.888Z,100.00
2022-10-13T21:03:42.656Z,100.00
2022-10-13T21:06:11.914Z,100.00
2022-10-13T21:08:39.497Z,100.00
2022-10-13T21:11:12.651Z,100.00
2022-10-13T21:13:42.457Z,100.00
2022-10-13T21:16:12.126Z,100.00
2022-10-13T21:18:39.692Z,100.00
2022-10-13T21:21:09.704Z,100.00
2022-10-13T21:23:37.208Z,100.00
2022-10-13T21:26:05.788Z,100.00
2022-10-13T21:28:33.899Z,100.00
2022-10-13T21:31:05.706Z,100.00
2022-10-13T21:33:35.698Z,100.00
2022-10-13T21:36:08.711Z,100.00
2022-10-13T21:38:36.479Z,100.00
2022-10-13T21:41:05.109Z,100.00
2022-10-13T21:43:32.677Z,100.00
2022-10-13T21:46:08.968Z,100.00
2022-10-13T21:48:43.254Z,100.00
2022-10-13T21:51:13.449Z,100.00
2022-10-13T21:53:41.202Z,100.00
2022-10-13T21:56:11.279Z,100.00
2022-10-13T21:58:39.253Z,100.00
2022-10-13T22:01:07.080Z,100.00
2022-10-13T22:03:34.818Z,100.00
2022-10-13T22:06:06.508Z,100.00
2022-10-13T22:08:38.710Z,100.00
2022-10-13T22:11:14.023Z,100.00
2022-10-13T22:13:41.581Z,100.00
2022-10-13T22:16:11.714Z,100.00
2022-10-13T22:18:43.017Z,100.00
2022-10-13T22:21:13.265Z,100.00
2022-10-13T22:23:42.086Z,100.00
2022-10-13T22:26:10.157Z,100.00
2022-10-13T22:28:38.024Z,100.00
2022-10-13T22:31:05.820Z,100.00
2022-10-13T22:33:34.810Z,100.00
2022-10-13T22:36:03.617Z,100.00
2022-10-13T22:38:30.975Z,100.00
2022-10-13T22:41:03.712Z,100.00
2022-10-13T22:43:31.105Z,100.00
2022-10-13T22:46:01.824Z,100.00
2022-10-13T22:48:29.447Z,100.00
2022-10-13T22:50:58.779Z,100.00
2022-10-13T22:53:29.789Z,100.00
2022-10-13T22:55:57.149Z,100.00
2022-10-13T22:58:25.919Z,100.00
2022-10-13T23:00:56.078Z,100.00
2022-10-13T23:03:23.740Z,100.00
2022-10-13T23:05:54.474Z,100.00
2022-10-13T23:08:21.836Z,100.00
2022-10-13T23:10:49.197Z,100.00
2022-10-13T23:13:16.649Z,100.00
2022-10-13T23:15:47.875Z,100.00
2022-10-13T23:18:15.353Z,100.00
2022-10-13T23:20:43.204Z,100.00
2022-10-13T23:23:11.041Z,100.00
2022-10-13T23:25:38.630Z,100.00
2022-10-13T23:28:06.033Z,100.00
2022-10-13T23:30:33.506Z,100.00
2022-10-13T23:33:02.265Z,100.00
2022-10-13T23:35:29.617Z,100.00
2022-10-13T23:37:57.018Z,100.00
2022-10-13T23:40:24.402Z,100.00
2022-10-13T23:42:51.986Z,100.00
2022-10-13T23:45:19.320Z,100.00
2022-10-13T23:47:46.775Z,100.00
2022-10-13T23:50:15.726Z,100.00
2022-10-13T23:52:43.076Z,100.00
2022-10-13T23:55:10.464Z,100.00
2022-10-13T23:57:37.837Z,100.00
